Time;durP1;ratioP1;P1;durP2;ratioP2;P2;SDS_P1;SDS_P2;PMS_P1;PMS_P2;Temp;Humidity;BMP_temperature;BMP_pressure;BME280_temperature;BME280_humidity;BME280_pressure;Samples;Min_cycle;Max_cycle;Signal;HPM_P1;HPM_P2
2024/01/26 00:04:13;;;;;;;15.32;6.88;;;9.50;99.90;;;;;;10370835;28;20037;-68
2024/01/26 00:09:15;;;;;;;16.77;7.45;;;9.50;99.90;;;;;;10378014;28;20425;-67
2024/01/26 00:14:16;;;;;;;16.40;6.25;;;9.50;99.90;;;;;;10377978;28;20103;-68
2024/01/26 00:19:16;;;;;;;15.30;6.85;;;9.50;99.90;;;;;;10376148;28;20100;-68
2024/01/26 00:24:17;;;;;;;15.65;7.05;;;9.50;99.90;;;;;;10379265;28;20516;-67
2024/01/26 00:29:17;;;;;;;14.45;6.75;;;9.50;99.90;;;;;;10377653;28;20505;-68
2024/01/26 00:34:18;;;;;;;14.63;7.53;;;9.50;99.90;;;;;;10368956;28;20033;-68
2024/01/26 00:39:19;;;;;;;14.00;6.68;;;9.50;99.90;;;;;;10371470;28;20848;-68
2024/01/26 00:44:19;;;;;;;13.15;6.78;;;9.50;99.90;;;;;;10378084;28;20025;-69
2024/01/26 00:49:20;;;;;;;13.88;6.88;;;9.50;99.90;;;;;;10382102;28;20033;-68
2024/01/26 00:54:20;;;;;;;13.27;6.32;;;9.50;99.90;;;;;;10372515;28;20069;-67
2024/01/26 00:59:21;;;;;;;13.57;6.47;;;9.60;99.90;;;;;;10372154;28;20116;-68
2024/01/26 01:04:22;;;;;;;14.18;6.45;;;9.50;99.90;;;;;;10371060;28;20163;-68
2024/01/26 01:09:22;;;;;;;13.15;6.47;;;9.50;99.90;;;;;;10362539;28;20026;-67
2024/01/26 01:14:23;;;;;;;14.90;6.82;;;9.60;99.90;;;;;;10374040;28;20393;-67
2024/01/26 01:19:24;;;;;;;13.43;6.20;;;9.60;99.90;;;;;;10375084;28;20160;-67
2024/01/26 01:24:25;;;;;;;15.63;6.40;;;9.60;99.90;;;;;;10374384;28;20104;-68
2024/01/26 01:29:26;;;;;;;15.63;6.70;;;9.60;99.90;;;;;;10378510;28;20516;-68
2024/01/26 01:34:26;;;;;;;15.40;6.65;;;9.60;99.90;;;;;;10378093;28;20120;-68
2024/01/26 01:39:27;;;;;;;11.50;6.03;;;9.60;99.90;;;;;;10374068;28;20029;-68
2024/01/26 01:44:28;;;;;;;13.10;6.40;;;9.60;99.90;;;;;;10374107;28;20029;-68
2024/01/26 01:49:29;;;;;;;14.07;6.80;;;9.60;99.90;;;;;;10377190;28;20013;-67
2024/01/26 01:54:30;;;;;;;14.82;7.43;;;9.60;99.90;;;;;;10376536;28;20018;-68
2024/01/26 01:59:32;;;;;;;14.77;6.78;;;9.60;99.90;;;;;;10372784;28;20014;-68
2024/01/26 02:04:33;;;;;;;14.82;6.93;;;9.60;99.90;;;;;;10351434;28;20434;-67
2024/01/26 02:09:33;;;;;;;12.45;6.50;;;9.60;99.90;;;;;;10362463;28;20014;-67
2024/01/26 02:14:34;;;;;;;13.85;6.30;;;9.60;99.90;;;;;;10356021;28;20026;-67
2024/01/26 02:19:34;;;;;;;11.75;6.20;;;9.70;99.90;;;;;;10360780;28;20053;-67
2024/01/26 02:24:35;;;;;;;13.13;6.75;;;9.70;99.90;;;;;;10375937;28;20029;-68
2024/01/26 02:29:35;;;;;;;11.93;5.65;;;9.70;99.90;;;;;;10380874;28;20025;-68
2024/01/26 02:34:37;;;;;;;13.07;6.63;;;9.70;99.90;;;;;;10381480;28;20037;-68
2024/01/26 02:39:37;;;;;;;14.52;6.68;;;9.70;99.90;;;;;;10382628;28;20021;-67
2024/01/26 02:44:38;;;;;;;14.35;6.40;;;9.70;99.90;;;;;;10387121;28;20114;-67
2024/01/26 02:49:42;;;;;;;13.82;5.68;;;9.70;99.90;;;;;;10383024;28;20025;-68
2024/01/26 02:54:43;;;;;;;11.25;5.63;;;9.70;99.90;;;;;;10383512;28;20056;-68
2024/01/26 02:59:43;;;;;;;15.05;6.28;;;9.70;99.90;;;;;;10383733;28;20509;-67
2024/01/26 03:04:44;;;;;;;11.35;6.07;;;9.70;99.90;;;;;;10388536;28;20116;-68
2024/01/26 03:09:44;;;;;;;12.85;5.97;;;9.70;99.90;;;;;;10383595;28;20025;-67
2024/01/26 03:14:45;;;;;;;14.07;6.28;;;9.70;99.90;;;;;;10374054;28;20230;-67
2024/01/26 03:19:46;;;;;;;12.30;6.38;;;9.70;99.90;;;;;;10376568;28;20032;-67
2024/01/26 03:24:46;;;;;;;13.15;5.95;;;9.70;99.90;;;;;;10377226;28;20032;-67
2024/01/26 03:29:47;;;;;;;10.70;5.65;;;9.70;99.90;;;;;;10384525;28;20029;-67
2024/01/26 03:34:47;;;;;;;10.68;5.57;;;9.70;99.90;;;;;;10385293;28;20037;-67
2024/01/26 03:39:48;;;;;;;10.75;5.47;;;9.70;99.90;;;;;;10370942;28;20087;-68
2024/01/26 03:44:49;;;;;;;12.20;5.78;;;9.70;99.90;;;;;;10390184;28;20021;-67
2024/01/26 03:49:49;;;;;;;11.75;5.55;;;9.80;99.90;;;;;;10378810;28;20017;-68
2024/01/26 03:54:50;;;;;;;10.65;5.30;;;9.70;99.90;;;;;;10385040;28;20026;-68
2024/01/26 03:59:51;;;;;;;11.35;5.35;;;9.80;99.90;;;;;;10385606;28;20374;-68
2024/01/26 04:04:51;;;;;;;12.35;5.40;;;9.80;99.90;;;;;;10381853;28;20018;-67
2024/01/26 04:09:52;;;;;;;13.00;6.43;;;9.80;99.90;;;;;;10370012;28;20025;-68
2024/01/26 04:14:52;;;;;;;10.90;5.10;;;9.80;99.90;;;;;;10374460;28;20069;-67
2024/01/26 04:19:53;;;;;;;11.77;5.72;;;9.80;99.90;;;;;;10377907;28;20065;-67
2024/01/26 04:24:54;;;;;;;11.25;5.28;;;9.80;99.90;;;;;;10374907;28;20026;-67
2024/01/26 04:29:54;;;;;;;12.93;5.05;;;9.80;99.90;;;;;;10367264;28;20030;-68
2024/01/26 04:34:55;;;;;;;10.60;5.03;;;9.80;99.90;;;;;;10382772;28;20663;-68
2024/01/26 04:39:55;;;;;;;11.52;5.25;;;9.80;99.90;;;;;;10378194;28;20034;-68
2024/01/26 04:44:56;;;;;;;11.65;5.60;;;9.90;99.90;;;;;;10372397;28;20066;-68
2024/01/26 04:49:57;;;;;;;12.23;5.40;;;9.90;99.90;;;;;;10348981;28;20025;-68
2024/01/26 04:54:58;;;;;;;10.93;5.72;;;9.90;99.90;;;;;;10359829;28;20121;-67
2024/01/26 04:59:58;;;;;;;11.32;5.43;;;9.90;99.90;;;;;;10354212;28;20569;-67
2024/01/26 05:04:59;;;;;;;12.68;5.68;;;9.90;99.90;;;;;;10354675;28;20026;-68
2024/01/26 05:10:00;;;;;;;11.35;5.55;;;9.90;99.90;;;;;;10361942;28;20542;-68
2024/01/26 05:15:02;;;;;;;10.75;5.60;;;9.90;99.90;;;;;;10360840;28;20030;-68
2024/01/26 05:20:04;;;;;;;11.10;5.85;;;9.90;99.90;;;;;;10361700;28;20429;-68
2024/01/26 05:25:05;;;;;;;9.70;5.25;;;9.90;99.90;;;;;;10367408;28;20474;-67
2024/01/26 05:30:07;;;;;;;11.75;5.95;;;10.00;99.90;;;;;;10361640;28;20117;-68
2024/01/26 05:35:07;;;;;;;10.27;5.88;;;10.00;99.90;;;;;;10359456;28;20058;-68
2024/01/26 05:40:08;;;;;;;10.48;5.68;;;10.00;99.90;;;;;;10363035;28;20113;-67
2024/01/26 05:45:09;;;;;;;10.98;5.13;;;10.00;99.90;;;;;;10361357;28;20021;-68
2024/01/26 05:50:11;;;;;;;10.68;6.10;;;10.00;99.90;;;;;;10360425;28;20030;-67
2024/01/26 05:55:12;;;;;;;10.48;5.88;;;10.00;99.90;;;;;;10364308;28;20407;-68
2024/01/26 06:00:13;;;;;;;10.88;6.10;;;10.00;99.90;;;;;;10372648;28;20038;-68
2024/01/26 06:05:14;;;;;;;11.85;5.82;;;10.00;99.90;;;;;;10374563;28;20736;-68
2024/01/26 06:10:15;;;;;;;11.93;6.05;;;10.00;99.90;;;;;;10370824;28;20095;-68
2024/01/26 06:15:16;;;;;;;11.30;5.35;;;10.00;99.90;;;;;;10371418;28;20038;-68
2024/01/26 06:20:17;;;;;;;10.57;5.65;;;10.00;99.90;;;;;;10386697;28;20033;-67
2024/01/26 06:25:17;;;;;;;12.95;5.93;;;10.00;99.90;;;;;;10362870;28;20033;-68
2024/01/26 06:30:18;;;;;;;10.80;5.80;;;10.10;99.90;;;;;;10368377;28;20112;-67
2024/01/26 06:35:18;;;;;;;10.48;5.95;;;10.10;99.90;;;;;;10367569;28;20014;-68
2024/01/26 06:40:19;;;;;;;10.00;5.63;;;10.10;99.90;;;;;;10369454;28;20029;-70
2024/01/26 06:45:20;;;;;;;12.88;5.55;;;10.10;99.90;;;;;;10370564;28;20661;-70
2024/01/26 06:50:20;;;;;;;10.15;4.95;;;10.10;99.90;;;;;;10364200;28;20560;-70
2024/01/26 06:55:21;;;;;;;7.65;4.85;;;10.20;99.90;;;;;;10371243;28;20029;-69
2024/01/26 07:00:21;;;;;;;9.00;5.10;;;10.20;99.90;;;;;;10370194;28;20068;-70
2024/01/26 07:05:22;;;;;;;7.88;4.65;;;10.20;99.90;;;;;;10363350;28;20021;-70
2024/01/26 07:10:23;;;;;;;7.32;4.53;;;10.20;99.90;;;;;;10372873;28;20083;-70
2024/01/26 07:15:24;;;;;;;7.75;4.20;;;10.20;99.90;;;;;;10375517;28;20030;-67
2024/01/26 07:20:24;;;;;;;7.13;4.13;;;10.20;99.90;;;;;;10367904;28;20034;-68
2024/01/26 07:25:25;;;;;;;7.10;4.03;;;10.20;99.90;;;;;;10371486;28;20049;-67
2024/01/26 07:30:25;;;;;;;7.22;3.95;;;10.20;99.90;;;;;;10370312;28;20113;-67
2024/01/26 07:35:26;;;;;;;6.13;3.88;;;10.20;99.90;;;;;;10376944;28;20018;-67
2024/01/26 07:40:27;;;;;;;5.75;3.42;;;10.30;99.90;;;;;;10367406;28;20026;-68
2024/01/26 07:45:27;;;;;;;5.95;3.60;;;10.20;99.90;;;;;;10368575;28;20026;-67
2024/01/26 07:50:28;;;;;;;4.88;3.30;;;10.20;99.90;;;;;;10370263;28;20037;-68
2024/01/26 07:55:28;;;;;;;6.03;3.33;;;10.30;99.90;;;;;;10368171;28;20426;-67
2024/01/26 08:00:29;;;;;;;7.10;3.60;;;10.30;99.90;;;;;;10372813;28;20033;-67
2024/01/26 08:05:30;;;;;;;7.43;3.47;;;10.30;99.90;;;;;;10376588;28;20409;-67
2024/01/26 08:10:30;;;;;;;6.97;3.65;;;10.30;99.90;;;;;;10374630;28;20033;-67
2024/01/26 08:15:31;;;;;;;5.60;3.40;;;10.30;99.90;;;;;;10375757;28;20033;-67
2024/01/26 08:20:31;;;;;;;4.63;3.25;;;10.30;99.90;;;;;;10379978;28;20500;-68
2024/01/26 08:25:33;;;;;;;5.53;3.60;;;10.40;99.90;;;;;;10366717;28;20025;-68
2024/01/26 08:30:35;;;;;;;5.78;3.55;;;10.40;99.90;;;;;;10362245;28;20804;-68
2024/01/26 08:35:35;;;;;;;5.55;3.13;;;10.40;99.90;;;;;;10366984;28;20076;-69
2024/01/26 08:40:36;;;;;;;5.25;3.08;;;10.40;99.90;;;;;;10372853;28;20068;-71
2024/01/26 08:45:36;;;;;;;3.63;2.53;;;10.30;99.90;;;;;;10371403;28;20080;-70
2024/01/26 08:50:38;;;;;;;6.00;3.53;;;10.40;99.90;;;;;;10368663;28;20025;-70
2024/01/26 08:55:39;;;;;;;6.32;3.80;;;10.50;99.90;;;;;;10368613;28;20021;-71
2024/01/26 09:00:40;;;;;;;6.13;3.92;;;10.50;99.90;;;;;;10374598;28;20537;-69
2024/01/26 09:05:40;;;;;;;5.18;3.55;;;10.40;99.90;;;;;;10374374;28;20629;-69
2024/01/26 09:10:41;;;;;;;6.20;3.60;;;10.40;99.90;;;;;;10370623;28;20033;-69
2024/01/26 09:15:42;;;;;;;5.93;3.60;;;10.50;99.90;;;;;;10374753;28;20160;-69
2024/01/26 09:20:44;;;;;;;5.88;3.28;;;10.50;99.90;;;;;;10366411;28;20022;-68
2024/01/26 09:25:48;;;;;;;4.93;2.90;;;10.50;99.90;;;;;;10360969;28;20533;-71
2024/01/26 09:30:48;;;;;;;4.75;2.30;;;10.50;99.90;;;;;;10346219;28;20144;-71
2024/01/26 09:35:49;;;;;;;4.80;2.55;;;10.70;99.90;;;;;;10371522;28;20084;-70
2024/01/26 09:40:50;;;;;;;2.95;2.03;;;10.50;99.90;;;;;;10372533;28;20029;-69
2024/01/26 09:45:53;;;;;;;3.10;1.45;;;10.50;99.90;;;;;;10370016;28;20101;-70
2024/01/26 09:50:54;;;;;;;2.90;1.50;;;10.50;99.90;;;;;;10369780;28;20108;-70
2024/01/26 09:55:55;;;;;;;5.35;2.03;;;10.50;99.90;;;;;;10369999;28;20017;-71
2024/01/26 10:00:56;;;;;;;3.05;1.25;;;11.30;99.90;;;;;;10367648;28;20124;-69
2024/01/26 10:05:57;;;;;;;2.22;0.70;;;10.50;99.90;;;;;;10374367;28;20025;-69
2024/01/26 10:10:57;;;;;;;1.58;0.80;;;10.50;99.90;;;;;;10369176;28;20032;-68
2024/01/26 10:16:09;;;;;;;4.95;0.80;;;11.60;99.90;;;;;;10369027;28;20030;-68
2024/01/26 10:21:14;;;;;;;4.82;1.05;;;10.50;99.90;;;;;;10371417;28;20034;-67
2024/01/26 10:26:15;;;;;;;2.40;0.63;;;10.40;99.90;;;;;;10371759;28;20025;-67
2024/01/26 10:31:15;;;;;;;4.78;1.60;;;10.40;99.90;;;;;;10368827;28;20068;-70
2024/01/26 10:36:18;;;;;;;3.45;1.10;;;11.60;99.90;;;;;;10382770;28;20033;-71
2024/01/26 10:41:21;;;;;;;8.50;1.92;;;10.70;99.90;;;;;;10375343;28;20071;-71
2024/01/26 10:46:22;;;;;;;5.18;1.02;;;10.60;99.90;;;;;;10377032;28;20022;-70
2024/01/26 10:51:24;;;;;;;3.28;0.95;;;10.60;99.90;;;;;;10386855;28;20034;-71
2024/01/26 10:56:25;;;;;;;9.30;1.10;;;10.60;99.90;;;;;;10380476;28;20060;-71
2024/01/26 11:01:26;;;;;;;13.82;2.17;;;10.60;99.90;;;;;;10386835;28;20030;-68
2024/01/26 11:06:29;;;;;;;3.13;1.20;;;10.60;99.90;;;;;;10378367;28;20056;-69
2024/01/26 11:11:34;;;;;;;7.00;1.20;;;10.60;99.90;;;;;;10383515;28;20026;-67
2024/01/26 11:16:42;;;;;;;6.28;1.45;;;10.60;99.90;;;;;;10369642;28;20497;-68
2024/01/26 11:21:46;;;;;;;4.65;1.10;;;10.60;99.90;;;;;;10375573;28;20030;-67
2024/01/26 11:27:01;;;;;;;6.85;1.10;;;10.50;99.90;;;;;;10378142;28;20615;-67
2024/01/26 11:32:17;;;;;;;4.50;1.30;;;10.50;99.90;;;;;;10372168;28;20565;-68
2024/01/26 11:37:17;;;;;;;7.30;0.95;;;10.50;99.90;;;;;;10372394;28;20022;-68
2024/01/26 11:42:18;;;;;;;4.65;1.00;;;10.50;99.90;;;;;;10374783;28;20056;-67
2024/01/26 11:47:19;;;;;;;8.65;1.15;;;10.50;99.90;;;;;;10374342;28;20021;-67
2024/01/26 11:52:21;;;;;;;7.45;2.28;;;10.40;99.90;;;;;;10371929;28;20041;-71
2024/01/26 11:57:23;;;;;;;11.68;1.90;;;10.40;99.90;;;;;;10361893;28;20018;-68
2024/01/26 12:02:24;;;;;;;6.00;1.80;;;10.40;99.90;;;;;;10365762;28;20195;-70
2024/01/26 12:07:24;;;;;;;13.15;2.50;;;10.40;99.90;;;;;;10371834;28;20026;-69
2024/01/26 12:12:25;;;;;;;9.65;1.55;;;10.30;99.90;;;;;;10372623;28;20037;-68
2024/01/26 12:17:27;;;;;;;6.95;1.55;;;10.30;99.90;;;;;;10368735;28;20037;-68
2024/01/26 12:22:28;;;;;;;4.63;1.17;;;10.30;99.90;;;;;;10370459;28;20025;-68
2024/01/26 12:27:28;;;;;;;8.23;1.58;;;10.30;99.90;;;;;;10365128;28;20076;-70
2024/01/26 12:32:29;;;;;;;7.70;1.73;;;10.30;99.90;;;;;;10374625;28;20026;-70
2024/01/26 12:37:30;;;;;;;9.57;1.27;;;10.30;99.90;;;;;;10377284;28;20017;-69
2024/01/26 12:42:31;;;;;;;7.18;1.65;;;10.30;99.90;;;;;;10376669;28;20035;-69
2024/01/26 12:47:32;;;;;;;8.35;1.27;;;10.30;99.90;;;;;;10369756;28;20030;-69
2024/01/26 12:52:32;;;;;;;7.30;1.38;;;10.30;99.90;;;;;;10373756;28;20029;-68
2024/01/26 12:57:33;;;;;;;7.38;1.73;;;10.30;99.90;;;;;;10368869;28;20029;-69
2024/01/26 13:02:35;;;;;;;8.70;1.40;;;10.50;99.90;;;;;;10370888;28;20520;-68
2024/01/26 13:07:36;;;;;;;4.72;1.55;;;10.30;99.90;;;;;;10367809;28;20019;-67
2024/01/26 13:12:36;;;;;;;11.02;1.75;;;10.30;99.90;;;;;;10393029;28;20034;-67
2024/01/26 13:17:37;;;;;;;12.75;1.88;;;10.30;99.90;;;;;;10373302;28;20132;-68
2024/01/26 13:22:38;;;;;;;8.98;2.13;;;10.30;99.90;;;;;;10354736;28;20582;-68
2024/01/26 13:27:38;;;;;;;7.47;1.60;;;10.30;99.90;;;;;;10369737;28;20022;-67
2024/01/26 13:32:39;;;;;;;8.45;1.45;;;10.30;99.90;;;;;;10374110;28;20029;-68
2024/01/26 13:37:39;;;;;;;6.57;1.40;;;10.30;99.90;;;;;;10371449;28;20025;-68
2024/01/26 13:42:41;;;;;;;11.32;1.90;;;10.30;99.90;;;;;;10377060;28;20038;-67
2024/01/26 13:47:42;;;;;;;11.00;1.52;;;10.30;99.90;;;;;;10368196;28;20117;-67
2024/01/26 13:52:44;;;;;;;12.60;1.95;;;10.30;99.90;;;;;;10366211;28;20029;-68
2024/01/26 13:57:44;;;;;;;9.15;1.83;;;10.40;99.90;;;;;;10364626;28;20024;-67
2024/01/26 14:02:45;;;;;;;5.35;1.25;;;10.40;99.90;;;;;;10379122;28;20026;-68
2024/01/26 14:07:47;;;;;;;8.70;1.50;;;10.50;99.90;;;;;;10376479;28;20032;-67
2024/01/26 14:12:47;;;;;;;4.72;1.25;;;10.50;99.90;;;;;;10379707;28;20478;-68
2024/01/26 14:17:48;;;;;;;9.82;1.60;;;10.50;99.90;;;;;;10375964;28;20042;-71
2024/01/26 14:22:51;;;;;;;13.25;1.75;;;10.40;99.90;;;;;;10366423;28;20038;-67
2024/01/26 14:27:52;;;;;;;11.27;2.33;;;10.40;99.90;;;;;;10375592;28;20088;-72
2024/01/26 14:32:52;;;;;;;4.43;0.88;;;10.20;99.90;;;;;;10370316;28;20025;-68
2024/01/26 14:37:53;;;;;;;2.75;0.70;;;10.00;99.90;;;;;;10372451;28;20091;-68
2024/01/26 14:42:53;;;;;;;6.88;1.95;;;9.80;99.90;;;;;;10371870;28;20034;-67
2024/01/26 14:48:45;;;;;;;7.35;1.25;;;9.50;99.90;;;;;;10483505;27;20444;-68
2024/01/26 14:53:46;;;;;;;8.15;1.20;;;9.50;99.90;;;;;;10483127;28;20537;-68
2024/01/26 14:58:46;;;;;;;8.02;1.15;;;9.30;99.90;;;;;;10485561;28;20408;-68
2024/01/26 15:03:47;;;;;;;7.40;1.42;;;9.30;99.90;;;;;;10480839;28;20090;-68
2024/01/26 15:08:48;;;;;;;7.28;1.83;;;9.40;99.90;;;;;;10483170;28;20051;-69
2024/01/26 15:13:48;;;;;;;7.43;1.40;;;9.40;99.90;;;;;;10470861;28;20457;-69
2024/01/26 15:18:49;;;;;;;11.00;1.52;;;9.60;99.90;;;;;;10476091;28;20020;-68
2024/01/26 15:23:49;;;;;;;8.05;1.50;;;10.40;99.90;;;;;;10477582;28;20024;-68
2024/01/26 15:28:50;;;;;;;9.10;1.33;;;9.80;99.90;;;;;;10457707;28;20028;-69
2024/01/26 15:33:51;;;;;;;9.63;1.58;;;9.80;99.90;;;;;;10461401;28;20489;-68
2024/01/26 15:38:51;;;;;;;8.65;1.02;;;9.80;99.90;;;;;;10471258;28;20080;-67
2024/01/26 15:43:52;;;;;;;9.30;1.27;;;9.80;99.90;;;;;;10475945;28;20058;-68
2024/01/26 15:48:52;;;;;;;7.03;1.52;;;9.80;99.90;;;;;;10459067;28;20043;-68
2024/01/26 15:53:53;;;;;;;7.95;1.00;;;9.80;99.90;;;;;;10478612;28;20013;-69
2024/01/26 15:58:54;;;;;;;6.70;1.45;;;9.80;99.90;;;;;;10464529;28;20027;-67
2024/01/26 16:03:54;;;;;;;8.32;1.27;;;9.80;99.90;;;;;;10440551;28;20052;-70
2024/01/26 16:08:55;;;;;;;6.72;1.27;;;9.70;99.90;;;;;;10447909;28;20079;-69
2024/01/26 16:13:56;;;;;;;3.28;1.10;;;9.70;99.90;;;;;;10438651;28;20029;-68
2024/01/26 16:18:57;;;;;;;6.40;1.15;;;9.70;99.90;;;;;;10448123;28;20021;-68
2024/01/26 16:23:58;;;;;;;8.25;1.08;;;9.70;99.90;;;;;;10442698;28;20587;-66
2024/01/26 16:28:59;;;;;;;8.65;1.42;;;9.70;99.90;;;;;;10445762;28;20073;-66
2024/01/26 16:34:02;;;;;;;8.05;1.10;;;9.70;99.90;;;;;;10442774;28;20079;-66
2024/01/26 16:39:03;;;;;;;9.32;2.40;;;9.70;99.90;;;;;;10446690;28;20517;-67
2024/01/26 16:44:04;;;;;;;4.70;1.13;;;9.70;99.90;;;;;;10459308;28;20037;-68
2024/01/26 16:49:04;;;;;;;6.53;1.23;;;9.80;99.90;;;;;;10445996;28;20028;-69
2024/01/26 16:54:05;;;;;;;5.60;1.40;;;9.80;99.90;;;;;;10467186;28;20647;-69
2024/01/26 16:59:05;;;;;;;9.48;1.75;;;9.80;99.90;;;;;;10460465;28;20495;-69
2024/01/26 17:04:06;;;;;;;4.93;1.23;;;9.70;99.90;;;;;;10467140;28;20536;-70
2024/01/26 17:09:07;;;;;;;10.82;1.83;;;9.70;99.90;;;;;;10460378;28;20505;-68
2024/01/26 17:14:08;;;;;;;10.15;1.88;;;9.70;99.90;;;;;;10459935;28;20032;-67
2024/01/26 17:19:09;;;;;;;7.63;1.50;;;9.80;99.90;;;;;;10455548;28;20021;-67
2024/01/26 17:24:09;;;;;;;9.90;1.40;;;9.80;99.90;;;;;;10459586;28;20021;-68
2024/01/26 17:29:10;;;;;;;6.68;1.42;;;11.00;99.90;;;;;;10463141;28;20037;-69
2024/01/26 17:34:10;;;;;;;11.88;2.08;;;9.70;99.90;;;;;;10458050;28;20024;-68
2024/01/26 17:39:11;;;;;;;8.00;1.98;;;9.70;99.90;;;;;;10461474;28;20687;-68
2024/01/26 17:44:12;;;;;;;5.78;1.42;;;9.70;99.90;;;;;;10456244;28;20032;-68
2024/01/26 17:49:12;;;;;;;6.68;1.30;;;9.60;99.90;;;;;;10458794;28;20078;-69
2024/01/26 17:54:13;;;;;;;7.65;1.40;;;9.60;99.90;;;;;;10468562;28;20033;-69
2024/01/26 17:59:13;;;;;;;5.95;1.38;;;9.60;99.90;;;;;;10463664;28;20043;-70
2024/01/26 18:04:14;;;;;;;4.93;1.65;;;9.50;99.90;;;;;;10458689;28;20115;-70
2024/01/26 18:09:15;;;;;;;5.55;1.77;;;9.50;99.90;;;;;;10457818;28;20374;-68
2024/01/26 18:14:16;;;;;;;6.32;1.40;;;9.50;99.90;;;;;;10463471;28;20480;-68
2024/01/26 18:19:17;;;;;;;3.83;1.40;;;9.50;99.90;;;;;;10456831;28;20025;-69
2024/01/26 18:24:17;;;;;;;5.50;1.40;;;9.40;99.90;;;;;;10461772;28;20051;-67
2024/01/26 18:29:18;;;;;;;5.07;1.27;;;9.40;99.90;;;;;;10455647;28;20112;-68
2024/01/26 18:34:18;;;;;;;6.53;1.50;;;9.40;99.90;;;;;;10460318;28;20111;-67
2024/01/26 18:39:20;;;;;;;6.45;1.17;;;9.40;99.90;;;;;;10461678;28;20037;-68
2024/01/26 18:44:20;;;;;;;3.78;1.48;;;9.40;99.90;;;;;;10458148;28;20124;-68
2024/01/26 18:49:22;;;;;;;6.38;1.70;;;9.40;99.90;;;;;;10431138;28;20408;-68
2024/01/26 18:54:22;;;;;;;8.30;1.70;;;9.30;99.90;;;;;;10449416;28;20467;-67
2024/01/26 18:59:24;;;;;;;4.65;1.00;;;9.30;99.90;;;;;;10455497;28;20059;-68
2024/01/26 19:04:25;;;;;;;4.70;1.30;;;9.30;99.90;;;;;;10445238;28;20496;-68
2024/01/26 19:09:25;;;;;;;4.20;1.38;;;9.30;99.90;;;;;;10444811;28;20020;-67
2024/01/26 19:14:26;;;;;;;5.65;1.60;;;9.30;99.90;;;;;;10454798;28;20032;-67
2024/01/26 19:19:26;;;;;;;4.55;1.60;;;9.30;99.90;;;;;;10447741;28;20029;-68
2024/01/26 19:24:27;;;;;;;6.25;1.55;;;9.30;99.90;;;;;;10448577;28;20126;-68
2024/01/26 19:29:30;;;;;;;4.93;1.33;;;9.20;99.90;;;;;;10452381;28;20048;-68
2024/01/26 19:34:31;;;;;;;7.70;1.63;;;9.20;99.90;;;;;;10447622;28;20032;-67
2024/01/26 19:39:32;;;;;;;4.53;1.33;;;9.20;99.90;;;;;;10457562;28;20018;-67
2024/01/26 19:44:32;;;;;;;3.53;1.30;;;9.20;99.90;;;;;;10458250;28;20041;-68
2024/01/26 19:49:33;;;;;;;5.47;1.40;;;9.20;99.90;;;;;;10460415;28;20028;-67
2024/01/26 19:54:33;;;;;;;9.65;1.50;;;9.20;99.90;;;;;;10456073;28;20550;-67
2024/01/26 19:59:34;;;;;;;4.15;1.48;;;8.50;99.90;;;;;;10460018;28;20074;-67
2024/01/26 20:04:35;;;;;;;4.85;1.60;;;9.10;99.90;;;;;;10450563;28;20033;-68
2024/01/26 20:09:35;;;;;;;4.38;1.10;;;9.10;99.90;;;;;;10462406;28;20017;-68
2024/01/26 20:14:36;;;;;;;6.55;1.10;;;9.10;99.90;;;;;;10454513;28;20021;-67
2024/01/26 20:19:38;;;;;;;6.25;1.48;;;9.10;99.90;;;;;;10451352;28;20040;-68
2024/01/26 20:24:38;;;;;;;4.57;1.23;;;9.10;99.90;;;;;;10459286;28;20538;-67
2024/01/26 20:29:39;;;;;;;3.70;1.00;;;9.10;99.90;;;;;;10455027;28;20029;-68
2024/01/26 20:34:40;;;;;;;4.53;1.20;;;9.10;99.90;;;;;;10449829;28;20030;-67
2024/01/26 20:39:40;;;;;;;4.35;1.00;;;9.10;99.90;;;;;;10450569;28;20264;-67
2024/01/26 20:44:41;;;;;;;4.28;1.40;;;9.10;99.90;;;;;;10457724;28;20447;-68
2024/01/26 20:49:42;;;;;;;4.47;1.17;;;9.10;99.90;;;;;;10458286;28;20040;-68
2024/01/26 20:54:42;;;;;;;3.97;1.27;;;9.00;99.90;;;;;;10453728;28;20043;-67
2024/01/26 20:59:43;;;;;;;4.57;1.30;;;9.00;99.90;;;;;;10456829;28;20099;-68
2024/01/26 21:04:43;;;;;;;5.05;1.13;;;9.00;99.90;;;;;;10453881;28;20421;-68
2024/01/26 21:09:44;;;;;;;4.68;1.40;;;9.00;99.90;;;;;;10452640;28;20028;-67
2024/01/26 21:14:45;;;;;;;4.05;1.30;;;9.00;99.90;;;;;;10460593;28;20041;-69
2024/01/26 21:19:45;;;;;;;9.13;1.65;;;9.00;99.90;;;;;;10451226;28;20021;-67
2024/01/26 21:24:46;;;;;;;6.43;1.60;;;9.00;99.90;;;;;;10458722;28;20024;-67
2024/01/26 21:29:51;;;;;;;3.30;1.63;;;9.00;99.90;;;;;;10462081;28;20115;-67
2024/01/26 21:34:53;;;;;;;4.57;1.60;;;8.90;99.90;;;;;;10442903;28;20544;-67
2024/01/26 21:39:54;;;;;;;5.57;1.75;;;8.90;99.90;;;;;;10445104;28;20051;-67
2024/01/26 21:44:54;;;;;;;4.68;1.10;;;8.90;99.90;;;;;;10454848;28;20064;-67
2024/01/26 21:49:55;;;;;;;3.15;1.15;;;8.90;99.90;;;;;;10444895;28;20066;-67
2024/01/26 21:54:56;;;;;;;3.40;1.02;;;8.90;99.90;;;;;;10457059;28;20020;-67
2024/01/26 21:59:56;;;;;;;2.90;1.20;;;8.80;99.90;;;;;;10455318;28;20459;-67
2024/01/26 22:04:57;;;;;;;4.95;1.00;;;8.80;99.90;;;;;;10452256;28;20468;-67
2024/01/26 22:09:57;;;;;;;2.38;1.00;;;8.80;99.90;;;;;;10454482;28;20016;-67
2024/01/26 22:14:59;;;;;;;3.00;1.05;;;8.80;99.90;;;;;;10440145;28;20673;-67
2024/01/26 22:20:00;;;;;;;6.13;1.50;;;8.80;99.90;;;;;;10454796;28;20660;-67
2024/01/26 22:25:01;;;;;;;3.92;1.45;;;8.80;99.90;;;;;;10454710;28;20046;-67
2024/01/26 22:30:01;;;;;;;4.55;1.20;;;8.80;99.90;;;;;;10448553;28;20435;-67
2024/01/26 22:35:02;;;;;;;2.35;0.85;;;8.80;99.90;;;;;;10448659;28;20029;-68
2024/01/26 22:40:04;;;;;;;7.90;1.20;;;8.80;99.90;;;;;;10453587;28;20035;-67
2024/01/26 22:45:06;;;;;;;3.67;1.20;;;8.70;99.90;;;;;;10448050;28;20063;-67
2024/01/26 22:50:06;;;;;;;3.60;1.08;;;8.70;99.90;;;;;;10446826;28;20087;-67
2024/01/26 22:55:07;;;;;;;4.20;1.00;;;8.70;99.90;;;;;;10461740;28;20561;-67
2024/01/26 23:00:11;;;;;;;4.30;0.90;;;8.70;99.90;;;;;;10468600;28;20021;-67
2024/01/26 23:05:12;;;;;;;5.30;1.40;;;8.70;99.90;;;;;;10473412;28;20028;-68
2024/01/26 23:10:13;;;;;;;5.05;0.98;;;8.70;99.90;;;;;;10465851;28;20439;-67
2024/01/26 23:15:14;;;;;;;3.78;1.25;;;8.70;99.90;;;;;;10464490;28;20040;-67
2024/01/26 23:20:14;;;;;;;3.72;1.30;;;8.70;99.90;;;;;;10466136;28;20032;-67
2024/01/26 23:25:15;;;;;;;4.57;1.25;;;8.60;99.90;;;;;;10481792;28;20036;-67
2024/01/26 23:30:15;;;;;;;6.20;1.35;;;8.60;99.90;;;;;;10472911;28;20021;-67
2024/01/26 23:35:16;;;;;;;2.70;0.98;;;8.60;99.90;;;;;;10474372;28;20021;-67
2024/01/26 23:40:17;;;;;;;5.10;1.27;;;8.60;99.90;;;;;;10469985;28;20036;-67
2024/01/26 23:45:17;;;;;;;3.60;0.85;;;8.60;99.90;;;;;;10472923;28;20044;-67
2024/01/26 23:50:18;;;;;;;2.55;0.98;;;8.60;99.90;;;;;;10463657;28;20021;-67
2024/01/26 23:55:18;;;;;;;3.03;1.05;;;8.50;99.90;;;;;;10473479;28;20043;-67
